Latest Observation

30 Stations

15 Minute Data | America/Los_Angeles
as of 9/3/26 11:11 AM PDT
Station Date Time Temp 5ft (°F) Temp 30ft (°F) Inversion (°F) RH (%) Dew Pt (°F) Wind Spd (mph) Wind Gust (mph) Solar Rad (W/m2) Daily Min Temp (°F) Daily Max Temp (°F) Daily Rain (In) Daily ETo (in)
Shandon ETo (SLO-1) 9/3/26 1100 69.8   0.8 69.6   0.8 -0.2 59   9 54.6   5.2 1.9   0.5 5.4   1.3 674   5 48.5   4.0 71.5   1.3 0.00 0.016   0.001
Creston Rd (SLO-2) 9/3/26 1100 68.8   0.7 67.2   0.7 -1.6 57   10 52.9   4.4 2.9   0.4 6.8   1.0 710   7 46.3   2.4 69.3   1.9 0.00 0.017   0.000
NE Paso Robles (SLO-3) 9/3/26 1100 70.2   0.1 68.4   0.4 -1.8 58   9 54.7   4.4 2.6   0.7 8.4   1.0 711   6 46.5   2.5 71.1   0.6 0.00 0.016   0.002
Cross Canyon Rd (SLO-4) 9/3/26 1100 68.1   0.7 66.4   0.8 -1.7 60   9 54.0   3.7 2.8   0.3 6.1   1.0 710   5 48.4   4.2 69.4   0.8 0.00 0.018   0.000
Willow Creek (SLO-5) 9/3/26 1100 69.7   0.8 70.0   1.6 0.3 56   3 53.2   2.3 2.0   1.6 7.4   0.7 737   4 43.3   1.8 71.0   0.9 0.00 0.018   0.001
Shell Creek Rd (SLO-6) 9/3/26 1100 74.9   1.2 74.6   1.3 -0.3 46   6 52.8   4.8 3.6   0.3 8.4   1.0 729   5 43.2   3.6 76.3   0.5 0.00 0.019   0.000
South Shandon (SLO-7) 9/3/26 1100 72.4   1.8 71.0   1.4 -1.4 53   8 54.4   6.0 2.3   0.7 6.4   1.3 706   4 45.6   5.5 73.5   1.8 0.00 0.018   0.000
South Creston (SLO-8) 9/3/26 1100 70.9   1.4 69.8   1.2 -1.1 55   7 54.1   4.9 2.3   0.8 7.1   0.3 710   5 44.7   2.7 72.0   1.2 0.00 0.016   0.002
Pozo Rd (SLO-9) 9/3/26 1100 69.2   1.0 67.2   1.1 -2.0 56   4 52.9   3.0 5.1   0.2 9.5   0.3 669   3 38.0   3.1 70.4   1.1 0.00 0.017   0.000
Experimental Station (SLO-10) 9/3/26 1100 68.3   0.2 66.5   0.2 -1.8 54   6 50.9   2.8 4.2   0.1 8.8   1.7 702   4 50.7   5.4 69.0   0.3 0.00 0.016   0.002
Vineyard Drive (SLO-11) 9/3/26 1100 71.7   1.5 70.8   1.3 -0.9 47   1 50.7   0.8 2.5   0.9 6.1   0.7 707   1 41.0   2.1 73.0   1.5 0.00 0.018   0.000
Von Dollen Road (SLO-12) 9/3/26 1100 68.1   0.8 66.9   0.2 -1.2 73   6 59.0   1.5 3.3   0.2 10.8   4.4 694   6 48.2   1.8 68.6   1.2 0.00 0.016   0.001
Templeton Gap West (SLO-13) 9/3/26 1100 71.0   0.3 69.2   0.7 -1.7 54   6 53.7   2.8 2.1   0.6 5.8   1.0 697   3 41.5   3.0 71.7   1.2 0.00 0.015   0.003
Orcutt Road (SLO-14) 9/3/26 1100 72.3   0.9 70.3   1.2 -2.1 57   9 56.1   4.0 3.8   0.1 8.4   0.3 700   3 50.3   3.9 73.0   1.5 0.00 0.017   0.001
Tiffany Ranch Rd (SLO-15) 9/3/26 1100 74.7   0.9 71.3   1.3 -3.5 53   8 56.6   3.9 0.0   0.0 0.0   0.0 753   6 51.8   8.1 75.3   1.1 0.00 0.019   0.002
Chimney Rock Rd (SLO-16) 9/3/26 0730 46.4   1.3 47.9   0.6 1.4 94   1 44.7   1.4 0.0   0.0 0.0   0.0 25   6 45.0   0.9 51.9   4.2 0.00 0.000   0.000
Nipomo Mesa (SLO-17) 9/3/26 1100 72.3   0.2 69.1   0.9 -3.3 60   9 57.8   4.5 1.6   1.7 4.8   2.0 724   6 46.4   4.6 73.5   0.9 0.00 0.020   0.000
Morro Creek (SLO-18) 9/3/26 1100 65.6   1.7 63.4   2.2 -2.2 78   10 58.6   2.0 5.8   0.4 9.5   0.3 690   2 49.2   2.8 66.7   2.0 0.00 0.017   0.001
Paso Robles Airport ETo 9/3/26 1100 66.5   0.8 65.8   0.3 -0.7 64   3 54.2   2.0 1.3   2.2 6.8   3.0 710   5 50.2   6.4 67.1   0.8 0.00 0.017   0.000
West Shandon (SLO-20) 9/3/26 1100 72.2   0.4 71.8   0.5 -0.4 55   10 54.9   5.8 2.2   0.1 7.1   1.7 680   7 48.7   4.8 73.2   0.6 0.00 0.016   0.002
West San Miguel (SLO-21) 9/3/26 1100 68.7   0.3 - - 50   4 49.2   2.6 3.0   0.1 7.7   0.6 697   4 48.8   2.9 69.6   0.3 0.00 0.015   0.002
Adelaida Road (SLO-22) 9/3/26 1100 68.2   0.6 67.5   0.9 -0.7 47   2 47.3   1.9 2.4   0.3 6.5   2.2 720   5 44.8   1.8 70.5   2.5 0.00 0.017   0.002
East Whitley Gardens (SLO-23) 9/3/26 1100 69.3   0.7 68.8   0.6 -0.5 52   9 50.8   5.5 2.1   0.0 6.0   0.0 743   6 48.0   2.8 70.0   0.2 0.00 0.015   0.004
Estrella Road (SLO-24) 9/3/26 1100 67.9   0.2 - - 56   7 51.4   3.8 1.8   0.2 6.0   1.7 742   5 47.1   3.3 68.6   0.4 0.00 0.017   0.001
Camatta Creek (SLO-25) 9/3/26 1100 70.8   0.9 - - 50   7 51.3   5.0 2.6   0.2 6.0   0.0 704   0 45.4   3.0 71.2   0.6 0.00 0.018   0.001
East-Shandon (SLO-26) 9/3/26 1100 70.7   1.2 - - 51   9 51.5   6.2 3.6   0.8 6.5   1.1 727   6 46.0   4.6 71.0   0.5 0.00 0.018   0.000
Templeton East (SLO-27) 9/3/26 1100 69.9   0.6 - - 48   3 49.3   2.4 2.3   0.4 7.1   1.7 722   6 46.2   3.6 71.1   1.1 0.00 0.017   0.000
Ground Squirrel Hollow (SLO-28) 9/3/26 1100 68.9   0.3 - - 53   10 51.2   5.9 1.3   0.3 4.9   1.1 711   9 51.3   4.6 70.3   1.1 0.00 0.016   0.002
East Paso Robles (SLO-29) 9/3/26 1100 67.6   0.0 - - 55   7 50.8   3.6 2.4   0.0 7.1   0.0 720   4 52.8   7.4 68.4   0.2 0.00 0.017   0.000
Max     74.9 74.6 0.3 78 59.0 5.8 10.8 753 52.8 76.3 0.00 0.020
Avg     70.0 68.8 -1.4 56 53.2 2.6 6.8 711 - - - -
Min     65.6 63.4 -3.5 46 47.3 0.0 0.0 669 38.0 66.7 0.00 0.015